createdAt,value
2019-02-04T00:01:40.231Z,2.20
2019-02-04T00:04:09.696Z,2.20
2019-02-04T00:06:39.149Z,2.10
2019-02-04T00:09:09.905Z,2.10
2019-02-04T00:11:39.515Z,2.10
2019-02-04T00:14:09.381Z,2.00
2019-02-04T00:16:40.805Z,2.10
2019-02-04T00:19:09.854Z,2.10
2019-02-04T00:21:39.328Z,2.00
2019-02-04T00:24:09.239Z,2.00
2019-02-04T00:26:38.756Z,2.00
2019-02-04T00:29:08.231Z,2.00
2019-02-04T00:31:37.726Z,2.00
2019-02-04T00:34:07.190Z,2.00
2019-02-04T00:36:36.664Z,2.00
2019-02-04T00:39:08.331Z,2.00
2019-02-04T00:41:38.423Z,2.00
2019-02-04T00:44:07.873Z,2.00
2019-02-04T00:46:37.335Z,1.90
2019-02-04T00:49:06.956Z,1.90
2019-02-04T00:51:36.427Z,1.90
2019-02-04T00:54:06.348Z,1.90
2019-02-04T00:56:36.107Z,1.90
2019-02-04T00:59:05.651Z,1.80
2019-02-04T01:01:35.077Z,1.80
2019-02-04T01:04:05.039Z,1.80
2019-02-04T01:06:34.566Z,1.80
2019-02-04T01:09:05.529Z,1.70
2019-02-04T01:11:34.936Z,1.80
2019-02-04T01:14:04.902Z,1.70
2019-02-04T01:16:34.453Z,1.70
2019-02-04T01:19:04.035Z,1.70
2019-02-04T01:21:33.561Z,1.70
2019-02-04T01:24:03.509Z,1.70
2019-02-04T01:26:33.339Z,1.70
2019-02-04T01:29:02.895Z,1.70
2019-02-04T01:31:32.669Z,1.60
2019-02-04T01:34:02.155Z,1.70
2019-02-04T01:36:31.549Z,1.70
2019-02-04T01:39:01.298Z,1.60
2019-02-04T01:41:33.182Z,1.60
2019-02-04T01:44:01.969Z,1.60
2019-02-04T01:46:31.729Z,1.60
2019-02-04T01:49:01.334Z,1.60
2019-02-04T01:51:31.340Z,1.50
2019-02-04T01:54:00.763Z,1.50
2019-02-04T01:56:30.332Z,1.60
2019-02-04T01:58:59.889Z,1.50
2019-02-04T02:01:29.371Z,1.50
2019-02-04T02:03:58.940Z,1.50
2019-02-04T02:06:28.813Z,1.40
2019-02-04T02:08:58.290Z,1.30
2019-02-04T02:11:28.232Z,1.30
2019-02-04T02:13:57.785Z,1.30
2019-02-04T02:16:27.447Z,1.20
2019-02-04T02:18:57.756Z,1.10
2019-02-04T02:21:27.184Z,1.10
2019-02-04T02:23:57.010Z,1.00
2019-02-04T02:26:26.596Z,1.00
2019-02-04T02:28:56.058Z,1.00
2019-02-04T02:31:25.708Z,1.00
2019-02-04T02:33:55.190Z,0.90
2019-02-04T02:36:24.667Z,0.90
2019-02-04T02:38:54.393Z,0.90
2019-02-04T02:41:23.811Z,0.90
2019-02-04T02:43:53.210Z,0.90
2019-02-04T02:46:23.344Z,0.80
2019-02-04T02:48:53.040Z,0.80
2019-02-04T02:51:22.546Z,0.80
2019-02-04T02:53:52.002Z,0.80
2019-02-04T02:56:21.951Z,0.80
2019-02-04T02:58:51.440Z,0.80
2019-02-04T03:01:21.420Z,0.80
2019-02-04T03:03:50.868Z,0.70
2019-02-04T03:06:20.733Z,0.60
2019-02-04T03:08:50.262Z,0.60
2019-02-04T03:11:20.122Z,0.50
2019-02-04T03:13:49.528Z,0.50
2019-02-04T03:16:18.984Z,0.50
2019-02-04T03:18:48.786Z,0.50
2019-02-04T03:21:18.272Z,0.50
2019-02-04T03:23:47.921Z,0.40
2019-02-04T03:26:17.434Z,0.40
2019-02-04T03:28:46.986Z,0.40
2019-02-04T03:31:16.872Z,0.40
2019-02-04T03:33:46.274Z,0.40
2019-02-04T03:36:15.808Z,0.30
2019-02-04T03:38:45.296Z,0.30
2019-02-04T03:41:14.766Z,0.30
2019-02-04T03:43:45.797Z,0.30
2019-02-04T03:46:15.322Z,0.30
2019-02-04T03:48:45.113Z,0.30
2019-02-04T03:51:14.661Z,0.30
2019-02-04T03:53:44.121Z,0.30
2019-02-04T03:56:13.964Z,0.30
2019-02-04T03:58:43.376Z,0.20
2019-02-04T04:01:12.812Z,0.30
2019-02-04T04:03:42.435Z,0.30
2019-02-04T04:06:12.529Z,0.30
2019-02-04T04:08:42.275Z,0.30
2019-02-04T04:11:12.228Z,0.30
2019-02-04T04:13:41.653Z,0.30
2019-02-04T04:16:11.436Z,0.30
2019-02-04T04:18:40.878Z,0.30
2019-02-04T04:21:10.395Z,0.30
2019-02-04T04:23:40.214Z,0.30
2019-02-04T04:26:09.652Z,0.30
2019-02-04T04:28:39.877Z,0.30
2019-02-04T04:31:09.967Z,0.20
2019-02-04T04:33:39.455Z,0.20
2019-02-04T04:36:09.529Z,0.30
2019-02-04T04:38:39.455Z,0.30
2019-02-04T04:41:09.833Z,0.20
2019-02-04T04:43:39.629Z,0.20
2019-02-04T04:46:09.046Z,0.20
2019-02-04T04:48:38.520Z,0.20
2019-02-04T04:51:08.361Z,0.20
2019-02-04T04:53:37.822Z,0.30
2019-02-04T04:56:07.312Z,0.30
2019-02-04T04:58:37.004Z,0.30
2019-02-04T05:01:06.460Z,0.30
2019-02-04T05:03:35.904Z,0.30
2019-02-04T05:06:05.654Z,0.30
2019-02-04T05:08:35.163Z,0.20
2019-02-04T05:11:04.648Z,0.30
2019-02-04T05:13:34.296Z,0.30
2019-02-04T05:16:03.861Z,0.30
2019-02-04T05:18:38.129Z,0.30
2019-02-04T05:21:04.958Z,0.20
2019-02-04T05:23:34.405Z,0.20
2019-02-04T05:26:04.131Z,0.30
2019-02-04T05:28:33.690Z,0.30
2019-02-04T05:31:03.127Z,0.30
2019-02-04T05:33:32.792Z,0.20
2019-02-04T05:36:02.460Z,0.20
2019-02-04T05:38:31.901Z,0.30
2019-02-04T05:41:01.696Z,0.30
2019-02-04T05:43:31.149Z,0.20
2019-02-04T05:46:00.728Z,0.20
2019-02-04T05:48:30.596Z,0.30
2019-02-04T05:51:00.064Z,0.30
2019-02-04T05:53:29.721Z,0.30
2019-02-04T05:55:59.077Z,0.20
2019-02-04T05:58:28.570Z,0.20
2019-02-04T06:00:58.474Z,0.30
2019-02-04T06:03:28.370Z,0.20
2019-02-04T06:05:57.821Z,0.20
2019-02-04T06:08:27.261Z,0.20
2019-02-04T06:10:56.733Z,0.30
2019-02-04T06:13:26.345Z,0.20
2019-02-04T06:15:55.825Z,0.20
2019-02-04T06:18:25.278Z,0.20
2019-02-04T06:20:55.061Z,0.20
2019-02-04T06:23:24.635Z,0.20
2019-02-04T06:25:54.567Z,0.30
2019-02-04T06:28:24.031Z,0.20
2019-02-04T06:30:55.147Z,0.30
2019-02-04T06:33:24.639Z,0.30
2019-02-04T06:35:54.212Z,0.20
2019-02-04T06:38:23.665Z,0.30
2019-02-04T06:40:53.136Z,0.20
2019-02-04T06:43:22.825Z,0.30
2019-02-04T06:45:52.343Z,0.30
2019-02-04T06:48:21.777Z,0.30
2019-02-04T06:50:52.708Z,0.30
2019-02-04T06:53:22.187Z,0.30
2019-02-04T06:55:51.831Z,0.30
2019-02-04T06:58:21.270Z,0.40
2019-02-04T07:00:50.682Z,0.40
2019-02-04T07:03:20.146Z,0.30
2019-02-04T07:05:49.757Z,0.40
2019-02-04T07:08:19.232Z,0.40
2019-02-04T07:10:48.668Z,0.30
2019-02-04T07:13:18.310Z,0.30
2019-02-04T07:15:47.835Z,0.40
2019-02-04T07:18:17.295Z,0.30
2019-02-04T07:20:47.122Z,0.40
2019-02-04T07:23:16.630Z,0.40
2019-02-04T07:25:46.289Z,0.40
2019-02-04T07:28:18.423Z,0.40
2019-02-04T07:30:47.925Z,0.30
2019-02-04T07:33:17.372Z,0.40
2019-02-04T07:35:47.240Z,0.30
2019-02-04T07:38:16.744Z,0.40
2019-02-04T07:40:46.644Z,0.40
2019-02-04T07:43:16.739Z,0.40
2019-02-04T07:45:46.189Z,0.40
2019-02-04T07:48:15.691Z,0.40
2019-02-04T07:50:45.316Z,0.50
2019-02-04T07:53:14.785Z,0.70
2019-02-04T07:55:44.280Z,0.60
2019-02-04T07:58:13.852Z,0.70
2019-02-04T08:00:43.353Z,0.80
2019-02-04T08:03:15.008Z,0.80
2019-02-04T08:05:43.874Z,0.80
2019-02-04T08:08:13.323Z,0.80
2019-02-04T08:10:43.153Z,0.80
2019-02-04T08:13:12.597Z,0.80
2019-02-04T08:15:42.624Z,0.80
2019-02-04T08:18:12.058Z,0.90
2019-02-04T08:20:41.563Z,0.80
2019-02-04T08:23:11.255Z,0.80
2019-02-04T08:25:40.756Z,0.90
2019-02-04T08:28:10.237Z,0.90
2019-02-04T08:30:39.930Z,0.90
2019-02-04T08:33:09.328Z,0.90
2019-02-04T08:35:38.798Z,0.90
2019-02-04T08:38:08.440Z,0.90
2019-02-04T08:40:38.188Z,0.80
2019-02-04T08:43:07.964Z,0.90
2019-02-04T08:45:37.426Z,0.90
2019-02-04T08:48:07.424Z,0.90
2019-02-04T08:50:36.971Z,1.00
2019-02-04T08:53:06.922Z,1.10
2019-02-04T08:55:37.110Z,1.10
2019-02-04T08:58:07.191Z,1.10
2019-02-04T09:00:36.649Z,1.10
2019-02-04T09:03:06.412Z,1.10
2019-02-04T09:05:35.870Z,1.10
2019-02-04T09:08:05.479Z,1.20
2019-02-04T09:10:35.442Z,1.10
2019-02-04T09:13:05.351Z,1.10
2019-02-04T09:15:34.804Z,1.20
2019-02-04T09:18:04.729Z,1.10
2019-02-04T09:20:34.218Z,1.20
2019-02-04T09:23:06.148Z,1.20
2019-02-04T09:25:34.771Z,1.30
2019-02-04T09:28:04.461Z,1.10
2019-02-04T09:30:33.977Z,1.10
2019-02-04T09:33:03.391Z,1.10
2019-02-04T09:35:33.184Z,1.20
2019-02-04T09:38:02.653Z,1.10
2019-02-04T09:40:38.333Z,1.30
2019-02-04T09:43:09.166Z,1.30
2019-02-04T09:45:40.092Z,1.30
2019-02-04T09:48:11.708Z,1.20
2019-02-04T09:50:41.202Z,1.30
2019-02-04T09:53:11.091Z,1.30
2019-02-04T09:55:40.653Z,1.30
2019-02-04T09:58:10.130Z,1.40
2019-02-04T10:00:39.674Z,1.60
2019-02-04T10:03:09.217Z,1.60
2019-02-04T10:05:38.793Z,1.40
2019-02-04T10:08:08.695Z,1.40
2019-02-04T10:10:38.126Z,1.40
2019-02-04T10:13:08.096Z,1.40
2019-02-04T10:15:39.375Z,1.40
2019-02-04T10:18:10.247Z,1.30
2019-02-04T10:20:40.131Z,1.20
2019-02-04T10:23:09.831Z,1.10
2019-02-04T10:25:41.215Z,1.00
2019-02-04T10:28:11.822Z,1.10
2019-02-04T10:30:41.454Z,1.20
2019-02-04T10:33:10.915Z,1.30
2019-02-04T10:35:40.372Z,1.40
2019-02-04T10:38:10.303Z,1.50
2019-02-04T10:40:39.834Z,1.50
2019-02-04T10:43:09.541Z,1.40
2019-02-04T10:45:41.590Z,1.40
2019-02-04T10:48:11.486Z,1.50
2019-02-04T10:50:46.127Z,1.50
2019-02-04T10:53:13.168Z,1.60
2019-02-04T10:55:42.664Z,1.60
2019-02-04T10:58:13.088Z,1.70
2019-02-04T11:00:43.186Z,1.80
2019-02-04T11:03:13.137Z,1.80
2019-02-04T11:05:43.381Z,1.70
2019-02-04T11:08:14.640Z,1.80
2019-02-04T11:10:44.204Z,1.70
2019-02-04T11:13:16.237Z,1.60
2019-02-04T11:15:46.849Z,1.60
2019-02-04T11:18:17.188Z,1.60
2019-02-04T11:20:57.793Z,1.50
2019-02-04T11:23:18.670Z,1.50
2019-02-04T11:25:48.536Z,1.40
2019-02-04T11:28:18.681Z,1.40
2019-02-04T11:30:56.757Z,1.40
2019-02-04T11:33:26.306Z,1.50
2019-02-04T11:35:55.751Z,1.50
2019-02-04T11:38:25.479Z,1.50
2019-02-04T11:40:55.200Z,1.40
2019-02-04T11:43:24.999Z,1.30
2019-02-04T11:45:55.058Z,1.30
2019-02-04T11:48:24.710Z,1.30
2019-02-04T11:50:54.378Z,1.20
2019-02-04T11:53:32.602Z,1.10
2019-02-04T11:55:55.137Z,1.20
2019-02-04T11:58:24.588Z,1.10
2019-02-04T12:00:54.543Z,1.10
2019-02-04T12:03:24.019Z,1.20
2019-02-04T12:05:53.753Z,1.10
2019-02-04T12:08:23.217Z,1.10
2019-02-04T12:11:14.120Z,1.00
2019-02-04T12:13:44.066Z,1.00
2019-02-04T12:16:13.615Z,1.00
2019-02-04T12:18:43.234Z,1.00
2019-02-04T12:21:21.135Z,1.00
2019-02-04T12:23:44.106Z,1.00
2019-02-04T12:26:13.953Z,1.00
2019-02-04T12:28:43.370Z,1.00
2019-02-04T12:31:12.848Z,0.90
2019-02-04T12:33:42.628Z,1.00
2019-02-04T12:36:12.093Z,1.00
2019-02-04T12:38:41.527Z,1.00
2019-02-04T12:41:11.419Z,1.00
2019-02-04T12:43:40.751Z,1.00
2019-02-04T12:46:10.472Z,1.00
2019-02-04T12:48:40.234Z,1.00
2019-02-04T12:51:09.925Z,1.00
2019-02-04T12:53:39.551Z,0.90
2019-02-04T12:56:08.925Z,0.90
2019-02-04T12:58:38.661Z,0.90
2019-02-04T13:01:08.215Z,1.00
2019-02-04T13:03:37.997Z,1.00
2019-02-04T13:06:09.260Z,1.00
2019-02-04T13:08:38.669Z,0.90
2019-02-04T13:11:08.629Z,1.00
2019-02-04T13:13:38.562Z,1.00
2019-02-04T13:16:08.533Z,1.00
2019-02-04T13:18:38.381Z,1.00
2019-02-04T13:21:07.822Z,1.00
2019-02-04T13:23:37.247Z,0.90
2019-02-04T13:26:06.824Z,0.90
2019-02-04T13:28:36.312Z,0.90
2019-02-04T13:31:05.836Z,0.90
2019-02-04T13:33:36.572Z,0.90
2019-02-04T13:36:06.072Z,0.90
2019-02-04T13:38:37.390Z,0.90
2019-02-04T13:41:09.467Z,0.90
2019-02-04T13:43:39.032Z,0.90
2019-02-04T13:46:10.499Z,0.80
2019-02-04T13:48:39.900Z,0.80
2019-02-04T13:51:09.333Z,0.90
2019-02-04T13:53:39.262Z,0.80
2019-02-04T13:56:08.676Z,0.80
2019-02-04T13:58:38.089Z,0.80
2019-02-04T14:01:08.607Z,0.90
2019-02-04T14:03:38.156Z,0.90
2019-02-04T14:06:09.962Z,0.80
2019-02-04T14:08:39.451Z,0.80
2019-02-04T14:11:09.470Z,0.80
2019-02-04T14:13:38.956Z,0.80
2019-02-04T14:16:08.355Z,0.70
2019-02-04T14:18:38.328Z,0.70
2019-02-04T14:21:08.794Z,0.70
2019-02-04T14:23:38.574Z,0.80
2019-02-04T14:26:08.155Z,0.80
2019-02-04T14:28:37.812Z,0.80
2019-02-04T14:31:07.264Z,0.80
2019-02-04T14:33:36.716Z,0.80
2019-02-04T14:36:06.281Z,0.70
2019-02-04T14:38:36.029Z,0.70
2019-02-04T14:41:05.462Z,0.60
2019-02-04T14:43:52.758Z,0.60
2019-02-04T14:46:49.609Z,0.70
2019-02-04T14:50:00.499Z,0.70
2019-02-04T14:53:02.717Z,0.70
2019-02-04T14:56:09.831Z,0.70
2019-02-04T14:58:49.216Z,0.60
2019-02-04T15:02:14.121Z,0.50
2019-02-04T15:04:53.131Z,0.50
2019-02-04T15:08:08.217Z,0.50
2019-02-04T15:11:02.905Z,0.50
2019-02-04T15:14:13.945Z,0.50
2019-02-04T15:17:08.192Z,0.50
2019-02-04T15:20:13.815Z,0.50
2019-02-04T15:22:55.859Z,0.50
2019-02-04T15:25:55.119Z,0.40
2019-02-04T15:28:46.773Z,0.40
2019-02-04T15:31:52.668Z,0.40
2019-02-04T15:35:04.557Z,0.30
2019-02-04T15:37:46.816Z,0.30
2019-02-04T15:40:44.748Z,0.30
2019-02-04T15:43:57.472Z,0.30
2019-02-04T15:46:37.437Z,0.30
2019-02-04T15:49:50.981Z,0.20
2019-02-04T15:52:20.957Z,0.20
2019-02-04T15:54:50.411Z,0.30
2019-02-04T15:57:20.176Z,0.20
2019-02-04T15:59:49.613Z,0.20
2019-02-04T16:02:19.381Z,0.30
2019-02-04T16:04:48.901Z,0.30
2019-02-04T16:07:18.354Z,0.20
2019-02-04T16:09:48.174Z,0.20
2019-02-04T16:12:18.417Z,0.20
2019-02-04T16:14:47.944Z,0.30
2019-02-04T16:17:17.751Z,0.30
2019-02-04T16:19:47.460Z,0.20
2019-02-04T16:22:17.137Z,0.20
2019-02-04T16:24:46.662Z,0.20
2019-02-04T16:27:16.120Z,0.10
2019-02-04T16:29:45.773Z,0.10
2019-02-04T16:32:15.408Z,0.20
2019-02-04T16:34:44.886Z,0.20
2019-02-04T16:37:14.600Z,0.10
2019-02-04T16:39:44.076Z,0.10
2019-02-04T16:42:13.538Z,0.20
2019-02-04T16:44:43.159Z,0.20
2019-02-04T16:47:12.608Z,0.20
2019-02-04T16:49:42.036Z,0.20
2019-02-04T16:52:11.719Z,0.20
2019-02-04T16:54:41.112Z,0.20
2019-02-04T16:57:10.524Z,0.20
2019-02-04T16:59:40.309Z,0.20
2019-02-04T17:02:09.759Z,0.20
2019-02-04T17:04:39.237Z,0.20
2019-02-04T17:07:08.657Z,0.20
2019-02-04T17:09:38.371Z,0.30
2019-02-04T17:12:07.884Z,0.20
2019-02-04T17:14:37.748Z,0.20
2019-02-04T17:17:07.552Z,0.10
2019-02-04T17:19:37.207Z,0.10
2019-02-04T17:22:07.137Z,0.10
2019-02-04T17:24:37.029Z,0.10
2019-02-04T17:27:06.940Z,0.10
2019-02-04T17:29:36.392Z,0.20
2019-02-04T17:32:06.067Z,0.10
2019-02-04T17:34:35.482Z,0.10
2019-02-04T17:37:05.433Z,0.10
2019-02-04T17:39:35.291Z,0.10
2019-02-04T17:42:05.118Z,0.10
2019-02-04T17:44:34.575Z,0.00
2019-02-04T17:47:04.411Z,0.10
2019-02-04T17:49:33.873Z,0.00
2019-02-04T17:52:03.465Z,0.10
2019-02-04T17:54:33.035Z,0.00
2019-02-04T17:57:02.502Z,0.10
2019-02-04T17:59:31.958Z,0.10
2019-02-04T18:02:01.667Z,0.10
2019-02-04T18:04:31.204Z,0.10
2019-02-04T18:07:00.990Z,0.10
2019-02-04T18:09:30.519Z,0.10
2019-02-04T18:11:59.963Z,0.00
2019-02-04T18:14:29.652Z,0.00
2019-02-04T18:16:59.405Z,0.00
2019-02-04T18:19:29.201Z,0.00
2019-02-04T18:21:59.359Z,0.20
2019-02-04T18:24:28.941Z,0.20
2019-02-04T18:26:59.024Z,0.10
2019-02-04T18:29:28.589Z,0.00
2019-02-04T18:31:58.440Z,-0.10
2019-02-04T18:34:29.651Z,-0.10
2019-02-04T18:36:59.222Z,-0.10
2019-02-04T18:39:29.101Z,0.00
2019-02-04T18:41:58.815Z,0.00
2019-02-04T18:44:28.685Z,0.00
2019-02-04T18:46:58.858Z,-0.10
2019-02-04T18:49:28.752Z,-0.10
2019-02-04T18:51:58.228Z,-0.20
2019-02-04T18:54:28.210Z,-0.20
2019-02-04T18:56:58.277Z,-0.20
2019-02-04T18:59:28.048Z,-0.20
2019-02-04T19:01:57.718Z,-0.10
2019-02-04T19:04:27.273Z,-0.10
2019-02-04T19:06:57.145Z,-0.20
2019-02-04T19:09:26.671Z,-0.10
2019-02-04T19:11:56.456Z,0.00
2019-02-04T19:14:26.100Z,0.10
2019-02-04T19:16:55.864Z,0.10
2019-02-04T19:19:25.316Z,0.00
2019-02-04T19:21:55.664Z,0.00
2019-02-04T19:24:25.473Z,-0.10
2019-02-04T19:26:55.037Z,-0.10
2019-02-04T19:29:24.836Z,-0.20
2019-02-04T19:31:54.543Z,-0.20
2019-02-04T19:34:24.693Z,-0.20
2019-02-04T19:36:54.507Z,-0.20
2019-02-04T19:39:23.963Z,-0.30
2019-02-04T19:41:53.711Z,-0.10
2019-02-04T19:44:23.899Z,-0.10
2019-02-04T19:46:53.443Z,-0.20
2019-02-04T19:49:22.895Z,-0.20
2019-02-04T19:51:55.154Z,-0.20
2019-02-04T19:54:23.668Z,-0.30
2019-02-04T19:56:53.144Z,-0.20
2019-02-04T19:59:22.999Z,-0.30
2019-02-04T20:01:52.591Z,-0.30
2019-02-04T20:04:22.033Z,-0.30
2019-02-04T20:06:51.782Z,-0.40
2019-02-04T20:09:21.368Z,-0.30
2019-02-04T20:11:50.889Z,-0.30
2019-02-04T20:14:20.710Z,-0.40
2019-02-04T20:16:50.180Z,-0.30
2019-02-04T20:19:19.695Z,-0.20
2019-02-04T20:21:49.223Z,-0.20
2019-02-04T20:24:18.740Z,-0.20
2019-02-04T20:26:48.301Z,-0.20
2019-02-04T20:29:18.170Z,-0.20
2019-02-04T20:31:47.751Z,-0.30
2019-02-04T20:34:17.225Z,-0.30
2019-02-04T20:36:46.843Z,-0.30
2019-02-04T20:39:16.313Z,-0.30
2019-02-04T20:41:45.820Z,-0.20
2019-02-04T20:44:15.813Z,-0.20
2019-02-04T20:46:45.361Z,-0.20
2019-02-04T20:49:14.793Z,-0.30
2019-02-04T20:51:44.365Z,-0.30
2019-02-04T20:54:19.771Z,-0.20
2019-02-04T20:56:45.094Z,-0.20
2019-02-04T20:59:14.731Z,-0.30
2019-02-04T21:01:44.187Z,-0.30
2019-02-04T21:04:13.646Z,-0.10
2019-02-04T21:06:43.228Z,-0.10
2019-02-04T21:09:13.189Z,0.00
2019-02-04T21:11:42.760Z,0.00
2019-02-04T21:14:12.407Z,-0.10
2019-02-04T21:16:41.948Z,-0.20
2019-02-04T21:19:11.428Z,-0.30
2019-02-04T21:21:40.913Z,-0.30
2019-02-04T21:24:10.494Z,-0.30
2019-02-04T21:26:40.667Z,-0.40
2019-02-04T21:29:10.175Z,-0.30
2019-02-04T21:31:39.695Z,-0.30
2019-02-04T21:34:09.318Z,-0.30
2019-02-04T21:36:38.832Z,-0.20
2019-02-04T21:39:09.576Z,-0.20
2019-02-04T21:41:39.299Z,-0.10
2019-02-04T21:44:08.802Z,-0.20
2019-02-04T21:46:38.404Z,-0.10
2019-02-04T21:49:08.074Z,-0.20
2019-02-04T21:51:37.648Z,-0.10
2019-02-04T21:54:07.182Z,-0.20
2019-02-04T21:56:37.579Z,-0.20
2019-02-04T21:59:07.078Z,-0.20
2019-02-04T22:01:36.607Z,-0.30
2019-02-04T22:04:06.768Z,-0.20
2019-02-04T22:06:36.304Z,-0.20
2019-02-04T22:09:09.095Z,-0.20
2019-02-04T22:11:38.861Z,-0.20
2019-02-04T22:14:08.537Z,-0.30
2019-02-04T22:16:38.036Z,-0.20
2019-02-04T22:19:07.955Z,-0.30
2019-02-04T22:21:37.542Z,-0.30
2019-02-04T22:24:07.463Z,-0.30
2019-02-04T22:26:36.869Z,-0.30
2019-02-04T22:29:06.777Z,-0.40
2019-02-04T22:31:36.346Z,-0.40
2019-02-04T22:34:06.266Z,-0.40
2019-02-04T22:36:35.745Z,-0.40
2019-02-04T22:39:09.687Z,-0.30
2019-02-04T22:41:39.160Z,-0.30
2019-02-04T22:44:09.037Z,-0.30
2019-02-04T22:46:38.568Z,-0.30
2019-02-04T22:49:08.169Z,-0.30
2019-02-04T22:51:37.619Z,-0.30
2019-02-04T22:54:08.666Z,-0.30
2019-02-04T22:56:38.236Z,-0.30
2019-02-04T22:59:07.721Z,-0.30
2019-02-04T23:01:56.172Z,-0.30
2019-02-04T23:04:26.137Z,-0.20
2019-02-04T23:06:55.602Z,-0.20
2019-02-04T23:09:25.127Z,-0.20
2019-02-04T23:11:54.897Z,-0.20
2019-02-04T23:14:24.386Z,-0.20
2019-02-04T23:16:53.882Z,-0.20
2019-02-04T23:19:23.447Z,-0.20
2019-02-04T23:21:53.058Z,-0.30
2019-02-04T23:24:22.756Z,-0.30
2019-02-04T23:26:52.381Z,-0.20
2019-02-04T23:29:21.793Z,-0.30
2019-02-04T23:31:52.650Z,-0.30
2019-02-04T23:34:22.115Z,-0.40
2019-02-04T23:36:52.294Z,-0.30
2019-02-04T23:39:22.311Z,-0.40
2019-02-04T23:41:57.579Z,-0.40
2019-02-04T23:44:24.520Z,-0.50
2019-02-04T23:46:54.116Z,-0.50
2019-02-04T23:49:23.937Z,-0.40
2019-02-04T23:51:53.573Z,-0.50
2019-02-04T23:54:23.473Z,-0.40
2019-02-04T23:56:52.997Z,-0.50
2019-02-04T23:59:22.866Z,-0.50
